Granville, North Dakota
Current Conditions -  °F | °C
As of 12:54 PM on Thursday 18 Dec 2014 (Local Time) from KMOT Reporting Station
Haze Haze  
Wind Chill: 12°   Ceiling: 900
Heat Index: 22°   Visibility: 4mi
Dew Point: 17°   Wind: 9mph
Humidity: 82%   Direction: 170°S
Pressure: 30.01"   Gusts: NA
Location:  48.27°N, 100.84°W
Report Text: KMOT 181854Z 17008KT 4SM HZ BKN009 OVC013 M06/M08 A3001 RMK AO2 SLP199 T10561083
Loading
Personal Weather Stations






























Interactive Weather Map New forecast layout! Learn more

10-Day Weather Forecast

Advertisements
Track Severe Weather on mobile